Toyofukumaru — JD2177 — position and weather

sailwx.info

Track history (hours):
 
Tides and Currents Weather Stations Pressure Air Temp Water Temp Dewpoint Dewpoint Depression Visibility Wind Speed Wind Dir Waves Ship Positions

Toyofukumaru

Last reported at 2016-Jul-23 19:33 UTC. Time now 2016-Jul-24 10:44 UTC.
Position N 34°34' E 134°49'.

Length 165 m; draft 6.2 m.

Type: Cargo ship. MMSI: 431200688.

Date/timePositionNaut miles runAvg speedWind from/ knotsBaromVisibWave heightAir tempDewpointWater temp
2016-Jul-23 19:33N 34°34' E 134°49'1313.2
2016-Jul-23 18:33N 34°32' E 135°05'1919.0
2016-Jul-23 17:34N 34°14' E 134°60'  
2016-Jul-19 15:17N 34°33' E 134°45'1419.4
2016-Jul-19 14:33N 34°37' E 135°02'1717.3
2016-Jul-19 13:33N 34°20' E 135°00'2019.6
2016-Jul-19 12:34N 34°00' E 135°01'  
2016-Jul-15 16:33N 34°35' E 134°53'1111.1
2016-Jul-15 15:33N 34°28' E 135°04'1818.2
2016-Jul-15 14:33N 34°10' E 134°60'  
Track history (hours):
 
Tides and Currents Weather Stations Pressure Air Temp Water Temp Dewpoint Dewpoint Depression Visibility Wind Speed Wind Dir Waves Ship Positions

Toyofukumaru

Last reported at 2016-Jul-23 19:33 UTC. Time now 2016-Jul-24 10:44 UTC.
Position N 34°34' E 134°49'.

Length 165 m; draft 6.2 m.

Type: Cargo ship. MMSI: 431200688.

Date/timePositionNaut miles runAvg speedWind from/ knotsBaromVisibWave heightAir tempDewpointWater temp
2016-Jul-23 19:33N 34°34' E 134°49'1313.2
2016-Jul-23 18:33N 34°32' E 135°05'1919.0
2016-Jul-23 17:34N 34°14' E 134°60'  
2016-Jul-19 15:17N 34°33' E 134°45'1419.4
2016-Jul-19 14:33N 34°37' E 135°02'1717.3
2016-Jul-19 13:33N 34°20' E 135°00'2019.6
2016-Jul-19 12:34N 34°00' E 135°01'  
2016-Jul-15 16:33N 34°35' E 134°53'1111.1
2016-Jul-15 15:33N 34°28' E 135°04'1818.2
2016-Jul-15 14:33N 34°10' E 134°60'  

Dump ship's entire track history